Time;durP1;ratioP1;P1;durP2;ratioP2;P2;SDS_P1;SDS_P2;PMS_P1;PMS_P2;Temp;Humidity;BMP_temperature;BMP_pressure;BME280_temperature;BME280_humidity;BME280_pressure;Samples;Min_cycle;Max_cycle;Signal;HPM_P1;HPM_P2
2023/04/30 00:02:07;;;;;;;12.43;3.87;;;9.10;99.90;;;;;;4976231;28;20294;-84
2023/04/30 00:04:33;;;;;;;10.17;3.10;;;9.10;99.90;;;;;;4959961;28;20290;-84
2023/04/30 00:07:07;;;;;;;9.33;3.20;;;9.00;99.90;;;;;;4976838;28;20300;-84
2023/04/30 00:09:33;;;;;;;10.05;2.70;;;9.00;99.90;;;;;;4976539;28;20047;-84
2023/04/30 00:12:02;;;;;;;9.53;3.20;;;9.00;99.90;;;;;;4976920;28;20054;-84
2023/04/30 00:14:28;;;;;;;12.53;2.70;;;9.00;99.90;;;;;;4960361;28;20289;-84
2023/04/30 00:16:56;;;;;;;12.93;2.93;;;9.00;99.90;;;;;;4975989;28;20638;-84
2023/04/30 00:19:22;;;;;;;10.73;3.00;;;9.00;99.90;;;;;;4960253;28;20059;-84
2023/04/30 00:21:47;;;;;;;10.70;3.03;;;9.00;99.90;;;;;;4975784;28;20633;-84
2023/04/30 00:24:13;;;;;;;7.53;2.70;;;9.00;99.90;;;;;;4976605;28;20050;-84
2023/04/30 00:26:42;;;;;;;9.13;2.30;;;8.90;99.90;;;;;;4943751;28;20133;-84
2023/04/30 00:29:09;;;;;;;10.73;3.87;;;8.90;99.90;;;;;;4975780;28;20085;-84
2023/04/30 00:31:34;;;;;;;9.23;2.87;;;8.90;99.90;;;;;;4959091;28;20386;-84
2023/04/30 00:34:03;;;;;;;7.60;2.83;;;8.90;99.90;;;;;;4975483;28;20310;-84
2023/04/30 00:36:29;;;;;;;11.17;2.87;;;8.80;99.90;;;;;;4975997;28;20475;-85
2023/04/30 00:38:55;;;;;;;9.03;2.53;;;8.80;99.90;;;;;;4975354;28;20321;-84
2023/04/30 00:41:25;;;;;;;7.17;2.43;;;8.70;99.90;;;;;;4975499;28;20298;-84
2023/04/30 00:43:50;;;;;;;8.93;2.83;;;8.70;99.90;;;;;;4975515;28;20101;-85
2023/04/30 00:46:16;;;;;;;9.13;2.93;;;8.60;99.90;;;;;;4976139;28;20385;-85
2023/04/30 00:48:42;;;;;;;7.40;2.47;;;8.60;99.90;;;;;;4976134;28;20057;-85
2023/04/30 00:51:08;;;;;;;10.60;3.23;;;8.70;99.90;;;;;;4975151;28;20455;-85
2023/04/30 00:53:35;;;;;;;6.57;2.20;;;8.70;99.90;;;;;;4975409;28;20089;-85
2023/04/30 00:56:01;;;;;;;9.13;2.60;;;8.70;99.90;;;;;;4958773;28;20398;-86
2023/04/30 00:58:29;;;;;;;9.73;2.97;;;8.70;99.90;;;;;;4975656;28;20318;-86
2023/04/30 01:00:55;;;;;;;7.73;2.83;;;8.60;99.90;;;;;;4959006;28;20848;-85
2023/04/30 01:03:21;;;;;;;9.77;2.67;;;8.60;99.90;;;;;;4959058;28;20291;-85
2023/04/30 01:05:47;;;;;;;10.80;2.63;;;8.50;99.90;;;;;;4958979;28;20349;-85
2023/04/30 01:08:16;;;;;;;8.90;3.20;;;8.50;99.90;;;;;;4958774;28;20298;-85
2023/04/30 01:10:52;;;;;;;9.57;3.20;;;8.40;99.90;;;;;;4958874;28;20502;-85
2023/04/30 01:13:44;;;;;;;5.83;2.73;;;8.50;99.90;;;;;;4958825;28;20299;-85
2023/04/30 01:16:27;;;;;;;11.07;3.53;;;8.50;99.90;;;;;;4974748;28;20286;-85
2023/04/30 01:19:16;;;;;;;8.80;3.10;;;8.50;99.90;;;;;;4974590;28;20799;-85
2023/04/30 01:21:42;;;;;;;9.57;2.87;;;8.50;99.90;;;;;;4974794;28;20364;-86
2023/04/30 01:24:45;;;;;;;7.67;2.30;;;8.50;99.90;;;;;;4974723;28;20325;-85
2023/04/30 01:27:31;;;;;;;10.17;2.70;;;8.50;99.90;;;;;;4958505;28;20619;-85
2023/04/30 01:29:58;;;;;;;9.33;3.07;;;8.50;99.90;;;;;;4974190;28;20291;-86
2023/04/30 01:32:26;;;;;;;10.60;3.47;;;8.50;99.90;;;;;;4974383;28;20294;-85
2023/04/30 01:34:51;;;;;;;6.77;2.60;;;8.50;99.90;;;;;;4974451;28;20809;-85
2023/04/30 01:37:29;;;;;;;12.47;2.63;;;8.60;99.90;;;;;;4959108;28;20325;-86
2023/04/30 01:40:06;;;;;;;11.37;3.30;;;8.60;99.90;;;;;;4975156;28;20053;-86
2023/04/30 01:42:50;;;;;;;13.23;2.77;;;8.60;99.90;;;;;;4958376;28;20704;-86
2023/04/30 01:45:45;;;;;;;9.23;3.07;;;8.60;99.90;;;;;;4959034;28;20334;-85
2023/04/30 01:48:23;;;;;;;7.80;3.08;;;8.60;99.90;;;;;;4975058;28;20385;-84
2023/04/30 01:51:13;;;;;;;15.17;4.60;;;8.70;99.90;;;;;;4975626;28;20122;-84
2023/04/30 01:53:41;;;;;;;11.97;3.37;;;8.70;99.90;;;;;;4974979;28;20294;-85
2023/04/30 01:56:29;;;;;;;7.20;3.03;;;8.70;99.90;;;;;;4974403;28;20837;-84
2023/04/30 01:58:56;;;;;;;10.23;2.80;;;8.80;99.90;;;;;;4973060;28;20303;-84
2023/04/30 02:01:29;;;;;;;10.63;3.03;;;8.80;99.90;;;;;;4974603;28;20631;-84
2023/04/30 02:03:55;;;;;;;9.50;3.77;;;8.80;99.90;;;;;;4942562;28;20641;-84
2023/04/30 02:06:27;;;;;;;10.47;3.63;;;8.80;99.90;;;;;;4973635;28;20349;-85
2023/04/30 02:08:53;;;;;;;9.20;3.83;;;8.80;99.90;;;;;;4974028;28;20306;-84
2023/04/30 02:11:19;;;;;;;9.70;2.97;;;8.80;99.90;;;;;;4973929;28;20837;-85
2023/04/30 02:13:45;;;;;;;10.80;3.13;;;8.80;99.90;;;;;;4957912;28;20369;-86
2023/04/30 02:16:10;;;;;;;9.73;3.33;;;8.80;99.90;;;;;;4974357;28;20467;-86
2023/04/30 02:18:36;;;;;;;7.43;3.50;;;8.80;99.90;;;;;;4941621;28;20046;-86
2023/04/30 02:21:02;;;;;;;12.30;3.77;;;8.80;99.90;;;;;;4972376;28;20421;-86
2023/04/30 02:23:27;;;;;;;10.13;3.43;;;8.80;99.90;;;;;;4942340;28;20054;-84
2023/04/30 02:25:53;;;;;;;8.50;3.00;;;8.80;99.90;;;;;;4973765;28;20042;-85
2023/04/30 02:28:19;;;;;;;10.60;3.80;;;8.70;99.90;;;;;;4973708;28;20043;-85
2023/04/30 02:30:45;;;;;;;10.90;3.30;;;8.70;99.90;;;;;;4974844;28;20090;-86
2023/04/30 02:33:11;;;;;;;14.03;3.17;;;8.70;99.90;;;;;;4973504;28;20054;-86
2023/04/30 02:35:39;;;;;;;9.73;3.07;;;8.60;99.90;;;;;;4973712;28;20482;-86
2023/04/30 02:38:05;;;;;;;7.77;3.07;;;8.60;99.90;;;;;;4973396;28;20313;-85
2023/04/30 02:40:31;;;;;;;8.93;3.23;;;8.60;99.90;;;;;;4941592;28;20286;-85
2023/04/30 02:42:57;;;;;;;8.67;3.67;;;8.50;99.90;;;;;;4958307;28;20050;-86
2023/04/30 02:45:23;;;;;;;9.17;3.30;;;8.50;99.90;;;;;;4973517;28;20055;-86
2023/04/30 02:47:49;;;;;;;8.90;3.43;;;8.50;99.90;;;;;;4973289;28;20296;-85
2023/04/30 02:50:15;;;;;;;9.87;3.43;;;8.50;99.90;;;;;;4957815;28;20129;-84
2023/04/30 02:52:41;;;;;;;8.03;3.47;;;8.60;99.90;;;;;;4957493;28;20046;-86
2023/04/30 02:55:07;;;;;;;11.30;3.73;;;8.60;99.90;;;;;;4973551;28;20054;-84
2023/04/30 02:57:33;;;;;;;9.00;3.63;;;8.60;99.90;;;;;;4957929;28;20761;-84
2023/04/30 02:59:58;;;;;;;8.20;3.00;;;8.50;99.90;;;;;;4958215;28;20349;-85
2023/04/30 03:02:24;;;;;;;9.17;3.60;;;8.50;99.90;;;;;;4973776;28;20087;-84
2023/04/30 03:04:50;;;;;;;10.77;4.07;;;8.50;99.90;;;;;;4973244;28;20513;-84
2023/04/30 03:07:15;;;;;;;10.57;3.60;;;8.50;99.90;;;;;;4957396;28;20061;-84
2023/04/30 03:09:42;;;;;;;10.57;3.40;;;8.50;99.90;;;;;;4973274;28;20043;-84
2023/04/30 03:12:08;;;;;;;9.53;2.80;;;8.50;99.90;;;;;;4973334;28;20474;-84
2023/04/30 03:14:33;;;;;;;9.27;2.57;;;8.50;99.90;;;;;;4973379;28;20290;-84
2023/04/30 03:16:59;;;;;;;6.43;2.60;;;8.40;99.90;;;;;;4957648;28;20059;-84
2023/04/30 03:19:25;;;;;;;9.03;2.70;;;8.40;99.90;;;;;;4976770;28;20074;-84
2023/04/30 03:21:51;;;;;;;10.53;2.47;;;8.30;99.90;;;;;;4961031;28;20063;-84
2023/04/30 03:24:18;;;;;;;11.57;2.80;;;8.30;99.90;;;;;;4976984;28;20129;-84
2023/04/30 03:26:44;;;;;;;8.33;2.63;;;8.20;99.90;;;;;;4961369;28;20441;-84
2023/04/30 03:29:10;;;;;;;9.13;3.03;;;8.30;99.90;;;;;;4960747;28;20290;-84
2023/04/30 03:31:35;;;;;;;8.77;2.60;;;8.30;99.90;;;;;;4960427;28;20325;-85
2023/04/30 03:34:01;;;;;;;9.40;3.37;;;8.30;99.90;;;;;;4960961;28;20046;-85
2023/04/30 03:36:27;;;;;;;14.57;2.77;;;8.20;99.90;;;;;;4960630;28;20379;-84
2023/04/30 03:38:53;;;;;;;10.03;2.60;;;8.20;99.90;;;;;;4960605;28;20039;-85
2023/04/30 03:41:18;;;;;;;14.20;3.13;;;8.10;99.90;;;;;;4976677;28;20054;-85
2023/04/30 03:43:45;;;;;;;9.13;2.83;;;8.10;99.90;;;;;;4976638;28;20058;-85
2023/04/30 03:46:10;;;;;;;13.27;3.00;;;8.00;99.90;;;;;;4960469;28;20106;-85
2023/04/30 03:48:36;;;;;;;9.77;3.20;;;7.90;99.90;;;;;;4975204;28;20287;-85
2023/04/30 03:51:02;;;;;;;10.20;2.60;;;7.90;99.90;;;;;;4977244;28;20051;-84
2023/04/30 03:53:28;;;;;;;9.57;2.80;;;7.90;99.90;;;;;;4976485;28;20058;-85
2023/04/30 03:55:54;;;;;;;10.33;2.97;;;7.80;99.90;;;;;;4976168;28;20051;-85
2023/04/30 03:58:20;;;;;;;11.37;3.10;;;7.90;99.90;;;;;;4944094;28;20069;-85
2023/04/30 04:00:47;;;;;;;13.77;3.30;;;7.90;99.90;;;;;;4959995;28;20341;-86
2023/04/30 04:03:15;;;;;;;9.10;2.90;;;7.90;99.90;;;;;;4976518;28;20294;-85
2023/04/30 04:05:41;;;;;;;9.70;3.73;;;7.90;99.90;;;;;;4960535;28;20290;-85
2023/04/30 04:08:07;;;;;;;10.93;3.07;;;7.80;99.90;;;;;;4976983;28;20301;-86
2023/04/30 04:10:34;;;;;;;9.37;3.50;;;7.80;99.90;;;;;;4944108;28;20398;-86
2023/04/30 04:13:00;;;;;;;10.80;2.67;;;7.70;99.90;;;;;;4976035;28;20047;-86
2023/04/30 04:15:25;;;;;;;16.27;3.77;;;7.70;99.90;;;;;;4944842;28;20308;-85
2023/04/30 04:17:51;;;;;;;10.33;3.00;;;7.70;99.90;;;;;;4959514;28;20046;-86
2023/04/30 04:20:17;;;;;;;8.43;2.67;;;7.70;99.90;;;;;;4959940;28;20130;-85
2023/04/30 04:22:43;;;;;;;14.50;3.57;;;7.80;99.90;;;;;;4944000;28;20113;-85
2023/04/30 04:25:09;;;;;;;9.17;3.43;;;7.80;99.90;;;;;;4975817;28;20290;-85
2023/04/30 04:27:35;;;;;;;7.33;2.27;;;7.90;99.90;;;;;;4944086;28;20286;-85
2023/04/30 04:30:04;;;;;;;7.67;3.00;;;7.90;99.90;;;;;;4975017;28;20059;-86
2023/04/30 04:32:31;;;;;;;10.47;3.07;;;7.90;99.90;;;;;;4959607;28;20055;-85
2023/04/30 04:34:57;;;;;;;7.67;3.30;;;8.00;99.90;;;;;;4960063;28;20294;-85
2023/04/30 04:37:23;;;;;;;8.10;2.57;;;7.90;99.90;;;;;;4975288;28;20294;-85
2023/04/30 04:39:50;;;;;;;11.30;3.10;;;7.90;99.90;;;;;;4976656;28;20294;-84
2023/04/30 04:42:16;;;;;;;9.50;3.27;;;8.00;99.90;;;;;;4976031;28;20117;-83
2023/04/30 04:44:42;;;;;;;10.07;2.70;;;8.00;99.90;;;;;;4976233;28;20382;-85
2023/04/30 04:47:09;;;;;;;11.20;2.90;;;8.10;99.90;;;;;;4944211;28;20729;-84
2023/04/30 04:49:35;;;;;;;14.80;3.73;;;8.00;99.90;;;;;;4959451;28;20073;-85
2023/04/30 04:52:00;;;;;;;10.07;3.17;;;8.00;99.90;;;;;;4943840;28;20290;-85
2023/04/30 04:54:27;;;;;;;11.17;2.87;;;8.00;99.90;;;;;;4943263;28;20155;-84
2023/04/30 04:56:52;;;;;;;8.80;2.67;;;8.10;99.90;;;;;;4975300;28;20058;-84
2023/04/30 04:59:18;;;;;;;13.73;3.27;;;8.10;99.90;;;;;;4975537;28;20401;-84
2023/04/30 05:01:44;;;;;;;11.67;3.07;;;8.10;99.90;;;;;;4975221;28;20090;-84
2023/04/30 05:04:12;;;;;;;11.07;2.63;;;8.10;99.90;;;;;;4943097;28;20043;-84
2023/04/30 05:06:38;;;;;;;10.87;3.10;;;8.10;99.90;;;;;;4959712;28;20135;-84
2023/04/30 05:09:07;;;;;;;11.47;3.27;;;8.10;99.90;;;;;;4974689;28;20329;-84
2023/04/30 05:11:33;;;;;;;14.83;3.30;;;8.20;99.90;;;;;;4959407;28;20058;-84
2023/04/30 05:13:59;;;;;;;9.47;2.70;;;8.20;99.90;;;;;;4959438;28;20318;-84
2023/04/30 05:16:25;;;;;;;9.20;2.77;;;8.20;99.90;;;;;;4958892;28;20046;-84
2023/04/30 05:18:51;;;;;;;10.93;2.67;;;8.30;99.90;;;;;;4942790;28;20074;-84
2023/04/30 05:21:17;;;;;;;9.07;2.97;;;8.40;99.90;;;;;;4958780;28;20371;-84
2023/04/30 05:23:43;;;;;;;10.60;3.00;;;8.50;99.90;;;;;;4926394;28;20093;-84
2023/04/30 05:26:09;;;;;;;8.30;3.13;;;8.60;99.90;;;;;;4958641;28;20069;-84
2023/04/30 05:28:35;;;;;;;10.93;3.13;;;8.70;99.90;;;;;;4958350;28;20785;-84
2023/04/30 05:31:01;;;;;;;8.03;3.07;;;8.70;99.90;;;;;;4942270;28;20063;-84
2023/04/30 05:33:26;;;;;;;9.17;2.77;;;8.80;99.90;;;;;;4958220;28;20086;-83
2023/04/30 05:35:52;;;;;;;12.83;2.93;;;8.90;99.90;;;;;;4958506;28;20081;-83
2023/04/30 05:38:18;;;;;;;10.73;3.03;;;8.90;99.90;;;;;;4958381;28;20493;-83
2023/04/30 05:40:43;;;;;;;9.07;3.00;;;9.00;99.90;;;;;;4942555;28;20050;-84
2023/04/30 05:43:12;;;;;;;10.27;2.83;;;9.00;99.90;;;;;;4974517;28;20467;-86
2023/04/30 05:45:37;;;;;;;9.03;3.77;;;9.20;99.90;;;;;;4942389;28;20050;-85
2023/04/30 05:48:04;;;;;;;10.80;3.20;;;9.30;99.90;;;;;;4942308;28;20321;-85
2023/04/30 05:50:29;;;;;;;8.10;2.80;;;9.40;99.90;;;;;;4942394;28;20101;-85
2023/04/30 05:52:55;;;;;;;8.97;2.60;;;9.80;99.90;;;;;;4942255;28;20642;-85
2023/04/30 05:55:21;;;;;;;11.60;2.77;;;10.00;99.90;;;;;;4973968;28;20125;-85
2023/04/30 05:57:46;;;;;;;13.77;2.90;;;10.30;99.90;;;;;;4974385;28;20050;-85
2023/04/30 06:00:13;;;;;;;8.23;2.53;;;10.40;99.90;;;;;;4974123;28;20462;-85
2023/04/30 06:02:38;;;;;;;12.03;3.20;;;10.50;99.90;;;;;;4973862;28;20047;-86
2023/04/30 06:05:06;;;;;;;11.40;2.50;;;11.00;99.90;;;;;;4974073;28;20297;-85
2023/04/30 06:07:32;;;;;;;8.93;2.67;;;11.40;99.90;;;;;;4958272;28;20085;-84
2023/04/30 06:09:58;;;;;;;7.10;2.40;;;11.80;99.90;;;;;;4958012;28;20402;-84
2023/04/30 06:12:23;;;;;;;8.63;2.60;;;12.60;99.90;;;;;;4957472;28;20098;-85
2023/04/30 06:14:50;;;;;;;8.70;2.60;;;13.70;99.90;;;;;;4974814;28;20061;-85
2023/04/30 06:17:16;;;;;;;6.83;2.00;;;14.80;99.90;;;;;;4974726;28;20101;-86
2023/04/30 06:19:41;;;;;;;11.23;2.47;;;15.80;99.90;;;;;;4973653;28;20314;-86
2023/04/30 06:22:07;;;;;;;7.10;2.63;;;16.80;99.90;;;;;;4957850;28;20039;-87
2023/04/30 06:24:33;;;;;;;8.40;2.67;;;17.50;99.90;;;;;;4974803;28;20050;-87
2023/04/30 06:26:59;;;;;;;9.90;2.73;;;17.10;95.00;;;;;;4973622;28;20101;-87
2023/04/30 06:29:24;;;;;;;10.23;2.47;;;16.10;98.90;;;;;;4958514;28;20043;-87
2023/04/30 06:31:53;;;;;;;9.53;2.60;;;14.90;99.90;;;;;;4957384;28;20426;-87
2023/04/30 06:34:19;;;;;;;10.63;3.13;;;14.10;99.90;;;;;;4974571;28;20057;-88
2023/04/30 06:36:45;;;;;;;6.50;2.33;;;13.50;99.90;;;;;;4973703;28;20380;-87
2023/04/30 06:39:14;;;;;;;8.17;3.53;;;13.10;99.90;;;;;;4958209;28;20437;-87
2023/04/30 06:41:40;;;;;;;9.60;3.07;;;12.60;99.90;;;;;;4973770;28;20401;-87
2023/04/30 06:44:07;;;;;;;9.13;2.40;;;12.30;99.90;;;;;;4958092;28;20290;-87
2023/04/30 06:46:33;;;;;;;7.30;2.47;;;12.10;99.90;;;;;;4958752;28;20129;-86
2023/04/30 06:48:59;;;;;;;10.67;3.03;;;12.00;99.90;;;;;;4959486;28;20397;-87
2023/04/30 06:51:25;;;;;;;12.13;2.80;;;12.00;99.90;;;;;;4957830;28;20050;-87
2023/04/30 06:53:51;;;;;;;12.70;2.97;;;11.80;99.90;;;;;;4977136;28;20633;-87
2023/04/30 06:56:17;;;;;;;7.93;2.43;;;11.60;99.90;;;;;;4945194;28;20109;-87
2023/04/30 06:58:43;;;;;;;6.77;2.27;;;11.50;99.90;;;;;;4945402;28;20306;-87
2023/04/30 07:01:09;;;;;;;12.00;4.07;;;11.30;99.90;;;;;;4978150;28;20445;-87
2023/04/30 07:03:35;;;;;;;9.13;2.40;;;11.20;99.90;;;;;;4978349;28;20290;-87
2023/04/30 07:06:01;;;;;;;9.83;2.90;;;11.20;99.90;;;;;;4978527;28;20110;-88
2023/04/30 07:08:27;;;;;;;9.33;2.40;;;11.20;99.90;;;;;;4961652;28;20109;-88
2023/04/30 07:10:53;;;;;;;7.93;2.40;;;11.10;99.90;;;;;;4961205;28;20697;-88
2023/04/30 07:13:18;;;;;;;11.23;3.67;;;11.10;99.90;;;;;;4945036;28;20550;-88
2023/04/30 07:15:44;;;;;;;11.03;2.80;;;11.10;99.90;;;;;;4961161;28;20043;-88
2023/04/30 07:18:10;;;;;;;13.30;2.70;;;11.20;99.90;;;;;;4976943;28;20104;-87
2023/04/30 07:20:36;;;;;;;10.53;3.07;;;11.20;99.90;;;;;;4961553;28;20471;-90
2023/04/30 07:23:02;;;;;;;9.87;3.30;;;11.30;99.90;;;;;;4976993;28;20055;-88
2023/04/30 07:25:27;;;;;;;10.07;3.40;;;11.40;99.90;;;;;;4930067;28;20047;-85
2023/04/30 07:27:54;;;;;;;12.73;3.53;;;11.40;99.90;;;;;;4977288;28;20309;-88
2023/04/30 07:30:21;;;;;;;11.77;2.93;;;11.50;99.90;;;;;;4976614;28;20486;-87
2023/04/30 07:32:47;;;;;;;9.93;3.17;;;11.50;99.90;;;;;;4960575;28;20290;-87
2023/04/30 07:35:13;;;;;;;9.53;2.90;;;11.60;99.90;;;;;;4977796;28;20290;-79
2023/04/30 07:37:40;;;;;;;11.13;2.80;;;11.70;99.90;;;;;;4977694;28;20278;-84
2023/04/30 07:40:11;;;;;;;10.90;3.43;;;11.90;99.90;;;;;;4979306;28;20778;-86
2023/04/30 07:42:44;;;;;;;10.17;2.83;;;12.00;99.90;;;;;;4977340;28;20781;-81
2023/04/30 07:45:10;;;;;;;7.07;2.90;;;12.50;99.90;;;;;;4978236;28;20285;-81
2023/04/30 07:47:36;;;;;;;7.93;2.50;;;13.60;99.90;;;;;;4977613;28;20365;-81
2023/04/30 07:50:02;;;;;;;11.40;2.73;;;14.70;99.90;;;;;;4976672;28;20374;-81
2023/04/30 07:52:27;;;;;;;8.23;2.80;;;15.20;99.90;;;;;;4977558;28;20047;-81
2023/04/30 07:54:53;;;;;;;10.07;3.00;;;15.00;99.90;;;;;;4977522;28;20282;-81
2023/04/30 07:57:19;;;;;;;11.10;2.90;;;14.80;99.90;;;;;;4977697;28;20051;-80
2023/04/30 07:59:45;;;;;;;11.23;3.43;;;15.10;99.90;;;;;;4977390;28;20121;-80
2023/04/30 08:02:10;;;;;;;11.53;2.60;;;15.40;99.90;;;;;;4976184;28;20505;-81
2023/04/30 08:04:36;;;;;;;11.43;3.20;;;16.20;99.90;;;;;;4976529;28;20043;-84
2023/04/30 08:07:03;;;;;;;8.50;2.80;;;16.70;99.90;;;;;;4976323;28;20051;-81
2023/04/30 08:09:29;;;;;;;11.67;3.13;;;16.40;98.90;;;;;;4977767;28;20395;-83
2023/04/30 08:11:55;;;;;;;11.60;2.90;;;16.10;97.90;;;;;;4977987;28;20047;-83
2023/04/30 08:14:21;;;;;;;8.83;3.00;;;15.30;98.10;;;;;;4976016;28;20545;-81
2023/04/30 08:16:46;;;;;;;10.43;2.57;;;14.70;98.10;;;;;;4975918;28;20046;-81
2023/04/30 08:19:12;;;;;;;6.90;2.40;;;14.40;99.50;;;;;;4977162;28;20398;-81
2023/04/30 08:21:38;;;;;;;10.40;3.10;;;14.10;99.90;;;;;;4976860;28;20050;-83
2023/04/30 08:24:04;;;;;;;10.13;2.97;;;13.90;99.90;;;;;;4975850;28;20052;-83
2023/04/30 08:26:30;;;;;;;8.23;2.63;;;13.90;99.90;;;;;;4976855;28;20454;-82
2023/04/30 08:28:56;;;;;;;7.43;2.23;;;13.90;99.90;;;;;;4976856;28;20083;-82
2023/04/30 08:31:22;;;;;;;7.03;2.13;;;13.90;99.90;;;;;;4975722;28;20089;-81
2023/04/30 08:33:47;;;;;;;14.77;2.77;;;14.00;99.90;;;;;;4976573;28;20057;-81
2023/04/30 08:36:13;;;;;;;9.50;2.60;;;14.20;99.90;;;;;;4977867;28;20101;-80
2023/04/30 08:38:39;;;;;;;9.33;2.93;;;14.20;99.90;;;;;;4977217;28;20046;-82
2023/04/30 08:41:10;;;;;;;8.90;2.33;;;14.30;99.90;;;;;;4976908;28;20538;-81
2023/04/30 08:43:36;;;;;;;8.43;2.80;;;14.30;99.80;;;;;;4976523;28;20301;-81
2023/04/30 08:46:04;;;;;;;8.83;2.77;;;14.10;99.90;;;;;;4975392;28;20373;-83
2023/04/30 08:48:30;;;;;;;9.67;2.87;;;14.10;99.90;;;;;;4976455;28;20282;-81
2023/04/30 08:51:02;;;;;;;8.63;2.57;;;14.10;99.90;;;;;;4976375;28;20366;-83
2023/04/30 08:53:34;;;;;;;6.57;2.17;;;14.10;99.90;;;;;;4977003;28;20278;-83
2023/04/30 08:56:00;;;;;;;9.47;2.67;;;14.00;99.00;;;;;;4975697;28;20627;-82
2023/04/30 08:58:26;;;;;;;7.33;2.23;;;14.10;99.90;;;;;;4974845;28;20361;-85
2023/04/30 09:00:52;;;;;;;8.57;3.20;;;14.20;99.90;;;;;;4976302;28;20286;-86
2023/04/30 09:03:17;;;;;;;12.43;3.03;;;14.30;99.90;;;;;;4976222;28;20054;-86
2023/04/30 09:05:43;;;;;;;9.27;2.83;;;14.40;99.80;;;;;;4976267;28;20086;-85
2023/04/30 09:08:15;;;;;;;9.63;2.70;;;14.60;99.20;;;;;;4975057;28;20043;-81
2023/04/30 09:10:42;;;;;;;9.67;2.97;;;14.60;98.60;;;;;;4976045;28;20051;-82
2023/04/30 09:13:09;;;;;;;7.60;2.47;;;14.60;98.30;;;;;;4976066;28;20157;-83
2023/04/30 09:15:36;;;;;;;6.70;2.50;;;14.60;98.90;;;;;;4976091;28;20371;-83
2023/04/30 09:18:16;;;;;;;9.33;3.20;;;14.60;99.20;;;;;;4976143;28;20336;-83
2023/04/30 09:20:54;;;;;;;7.60;3.43;;;14.60;99.30;;;;;;4975995;28;20086;-84
2023/04/30 09:23:22;;;;;;;10.40;3.07;;;14.60;97.80;;;;;;4958342;28;20658;-86
2023/04/30 09:25:48;;;;;;;13.47;3.20;;;14.50;97.50;;;;;;4975822;28;20059;-87
2023/04/30 09:28:14;;;;;;;8.07;2.90;;;14.70;98.70;;;;;;4958435;28;20054;-86
2023/04/30 09:30:41;;;;;;;10.07;2.70;;;14.80;98.10;;;;;;4975757;28;20066;-87
2023/04/30 09:33:07;;;;;;;8.50;2.63;;;14.70;97.00;;;;;;4976468;28;20105;-86
2023/04/30 09:35:43;;;;;;;6.90;2.83;;;14.70;97.80;;;;;;4958349;28;20046;-87
2023/04/30 09:38:29;;;;;;;7.27;2.70;;;14.70;97.40;;;;;;4974876;28;20090;-83
2023/04/30 09:40:57;;;;;;;10.20;2.90;;;14.60;95.60;;;;;;4975594;28;20094;-82
2023/04/30 09:43:23;;;;;;;9.67;3.00;;;14.70;97.70;;;;;;4975441;28;20054;-81
2023/04/30 09:45:50;;;;;;;11.53;3.03;;;14.90;97.90;;;;;;4974564;28;20069;-82
2023/04/30 09:48:17;;;;;;;8.87;2.40;;;15.00;96.90;;;;;;4974745;28;20121;-81
2023/04/30 09:50:44;;;;;;;8.67;2.67;;;15.00;96.90;;;;;;4975340;28;20054;-84
2023/04/30 09:53:13;;;;;;;9.23;2.57;;;15.00;95.90;;;;;;4975361;28;20113;-82
2023/04/30 09:55:42;;;;;;;7.60;2.70;;;14.90;95.60;;;;;;4975287;28;20055;-81
2023/04/30 09:58:09;;;;;;;7.77;2.40;;;14.90;96.10;;;;;;4974237;28;20389;-85
2023/04/30 10:00:36;;;;;;;8.27;2.63;;;14.80;96.30;;;;;;4975240;28;20042;-84
2023/04/30 10:03:07;;;;;;;8.33;2.63;;;14.80;96.70;;;;;;4975189;28;20141;-84
2023/04/30 10:05:39;;;;;;;9.97;2.90;;;14.80;96.70;;;;;;4975046;28;20482;-81
2023/04/30 10:08:12;;;;;;;7.73;2.70;;;14.70;96.90;;;;;;4975496;28;20055;-73
2023/04/30 10:10:41;;;;;;;9.30;2.47;;;14.60;97.20;;;;;;4975011;28;20182;-81
2023/04/30 10:13:13;;;;;;;7.43;2.40;;;14.60;97.90;;;;;;4974940;28;20521;-82
2023/04/30 10:15:52;;;;;;;6.13;1.87;;;14.50;97.70;;;;;;4974835;28;20285;-81
2023/04/30 10:18:32;;;;;;;9.73;2.70;;;14.50;97.90;;;;;;4974195;28;20302;-82
2023/04/30 10:21:01;;;;;;;10.23;3.10;;;14.40;97.30;;;;;;4975661;28;20274;-81
2023/04/30 10:23:28;;;;;;;10.30;2.53;;;14.20;97.60;;;;;;4973740;28;20197;-84
2023/04/30 10:25:56;;;;;;;5.90;2.87;;;14.20;98.50;;;;;;4974978;28;20282;-85
2023/04/30 10:28:22;;;;;;;8.40;2.43;;;14.20;98.90;;;;;;4958096;28;20322;-85
2023/04/30 10:30:50;;;;;;;8.10;2.13;;;14.20;98.70;;;;;;4974781;28;20395;-84
2023/04/30 10:33:38;;;;;;;11.07;2.87;;;14.30;99.30;;;;;;4975075;28;20685;-85
2023/04/30 10:36:09;;;;;;;6.73;2.60;;;14.20;99.50;;;;;;4974659;28;20394;-84
2023/04/30 10:38:36;;;;;;;6.63;2.50;;;14.20;99.90;;;;;;4975150;28;20129;-82
2023/04/30 10:41:06;;;;;;;10.00;3.00;;;14.10;99.90;;;;;;4957409;28;20302;-86
2023/04/30 10:43:34;;;;;;;5.70;2.50;;;14.10;99.90;;;;;;4975357;28;20325;-83
2023/04/30 10:46:01;;;;;;;8.97;5.33;;;14.10;99.90;;;;;;4974794;28;20793;-81
2023/04/30 10:48:29;;;;;;;7.30;2.60;;;14.10;99.90;;;;;;4974902;28;20769;-82
2023/04/30 10:50:57;;;;;;;5.47;2.47;;;14.20;99.90;;;;;;4974482;28;20282;-83
2023/04/30 10:53:25;;;;;;;6.50;2.10;;;14.20;99.90;;;;;;4973678;28;20825;-84
2023/04/30 10:55:56;;;;;;;6.37;2.40;;;14.30;99.90;;;;;;4974469;28;20282;-82
2023/04/30 10:58:24;;;;;;;6.97;2.90;;;14.30;99.90;;;;;;4974495;28;20298;-84
2023/04/30 11:01:09;;;;;;;10.97;2.17;;;14.30;99.90;;;;;;4974556;28;20293;-81
2023/04/30 11:03:36;;;;;;;;;;;14.30;99.90;;;;;;4975505;28;20314;-81
2023/04/30 11:06:09;;;;;;;4.53;1.90;;;14.20;99.90;;;;;;4973450;28;19922;-83
2023/04/30 11:08:37;;;;;;;3.70;1.80;;;14.10;99.90;;;;;;4974653;28;20674;-86
2023/04/30 11:11:06;;;;;;;4.57;2.07;;;14.10;99.90;;;;;;4974381;28;20349;-86
2023/04/30 11:13:44;;;;;;;4.80;2.43;;;14.20;99.90;;;;;;4957223;28;20463;-83
2023/04/30 11:16:10;;;;;;;5.37;2.17;;;14.10;99.90;;;;;;4974332;28;20384;-83
2023/04/30 11:18:46;;;;;;;3.73;1.80;;;14.20;99.90;;;;;;4973348;28;20876;-87
2023/04/30 11:21:12;;;;;;;7.57;2.50;;;14.20;99.90;;;;;;4974067;28;20078;-87
2023/04/30 11:23:43;;;;;;;5.60;2.30;;;14.40;99.90;;;;;;4973494;28;20366;-82
2023/04/30 11:26:09;;;;;;;6.43;1.97;;;14.40;99.90;;;;;;4973909;28;20290;-83
2023/04/30 11:28:36;;;;;;;5.83;1.83;;;14.30;99.90;;;;;;4974676;28;20279;-81
2023/04/30 11:31:02;;;;;;;4.10;1.77;;;14.40;99.90;;;;;;4974480;28;20467;-83
2023/04/30 11:33:30;;;;;;;5.77;1.77;;;14.30;99.90;;;;;;4973684;28;20746;-75
2023/04/30 11:35:58;;;;;;;2.73;1.50;;;14.40;99.90;;;;;;4973934;28;20286;-79
2023/04/30 11:38:29;;;;;;;3.77;2.00;;;14.40;99.90;;;;;;4974645;28;20344;-82
2023/04/30 11:40:56;;;;;;;3.27;1.70;;;14.40;99.90;;;;;;4976335;28;20804;-82
2023/04/30 11:43:27;;;;;;;4.50;1.83;;;14.30;99.90;;;;;;4976054;28;20286;-81
2023/04/30 11:46:05;;;;;;;3.60;1.87;;;14.30;99.90;;;;;;4977314;28;20657;-82
2023/04/30 11:48:42;;;;;;;4.00;1.53;;;14.40;99.90;;;;;;4976704;28;20298;-82
2023/04/30 11:51:25;;;;;;;2.70;1.10;;;14.50;99.90;;;;;;4976311;28;20321;-82
2023/04/30 11:53:52;;;;;;;3.17;1.50;;;14.50;99.90;;;;;;4976406;28;20291;-83
2023/04/30 11:56:21;;;;;;;3.30;1.40;;;14.60;99.90;;;;;;4977565;28;20623;-83
2023/04/30 11:58:48;;;;;;;3.63;1.60;;;14.60;99.90;;;;;;4977116;28;20306;-82
2023/04/30 12:01:14;;;;;;;4.23;1.93;;;14.60;99.90;;;;;;4976033;28;20344;-82
2023/04/30 12:03:45;;;;;;;4.60;1.77;;;14.60;99.90;;;;;;4976160;28;20330;-80
2023/04/30 12:06:20;;;;;;;4.00;1.60;;;14.60;99.90;;;;;;4976990;28;20365;-82
2023/04/30 12:08:46;;;;;;;;;;;14.60;99.90;;;;;;4978021;28;20270;-83
2023/04/30 12:11:26;;;;;;;4.50;1.80;;;14.60;99.90;;;;;;4977024;28;19968;-82
2023/04/30 12:13:59;;;;;;;2.77;1.53;;;14.70;99.90;;;;;;4976033;28;20066;-82
2023/04/30 12:16:28;;;;;;;4.27;1.90;;;14.80;99.90;;;;;;4977153;28;20290;-82
2023/04/30 12:18:54;;;;;;;3.30;1.50;;;14.80;99.90;;;;;;4975448;28;20310;-82
2023/04/30 12:21:21;;;;;;;6.90;1.93;;;14.80;99.90;;;;;;4976719;28;20425;-81
2023/04/30 12:23:47;;;;;;;2.63;1.40;;;14.80;99.90;;;;;;4976786;28;20293;-82
2023/04/30 12:26:13;;;;;;;4.07;1.30;;;14.80;99.90;;;;;;4943820;28;20302;-82
2023/04/30 12:28:39;;;;;;;2.93;1.40;;;14.90;99.90;;;;;;4976113;28;20042;-81
2023/04/30 12:31:05;;;;;;;4.70;1.40;;;15.00;99.90;;;;;;4958922;28;20081;-82
2023/04/30 12:33:31;;;;;;;3.57;1.30;;;15.00;99.90;;;;;;4976431;28;20109;-81
2023/04/30 12:35:58;;;;;;;3.23;1.37;;;15.00;99.90;;;;;;4976906;28;20285;-82
2023/04/30 12:38:24;;;;;;;4.30;1.70;;;14.90;99.90;;;;;;4975362;28;20658;-82
2023/04/30 12:40:50;;;;;;;1.87;1.00;;;14.90;99.90;;;;;;4976423;28;20296;-82
2023/04/30 12:43:17;;;;;;;4.10;1.40;;;14.90;99.90;;;;;;4975485;28;20055;-82
2023/04/30 12:45:43;;;;;;;3.63;1.27;;;15.00;99.90;;;;;;4974991;28;20286;-82
2023/04/30 12:48:09;;;;;;;3.87;1.40;;;15.00;99.90;;;;;;4976236;28;20289;-82
2023/04/30 12:50:37;;;;;;;3.47;1.30;;;15.00;99.90;;;;;;4975714;28;20391;-79
2023/04/30 12:53:03;;;;;;;4.50;1.30;;;14.90;99.90;;;;;;4976236;28;20288;-82